sensor_id;sensor_type;location;lat;lon;timestamp;pressure;altitude;pressure_sealevel;temperature;humidity
8061;BME280;4073;42.626;25.386;2023-03-15T00:00:38;96390.22;;;4.57;63.52
8061;BME280;4073;42.626;25.386;2023-03-15T00:03:03;96383.59;;;4.54;63.55
8061;BME280;4073;42.626;25.386;2023-03-15T00:05:30;96381.44;;;4.51;63.55
8061;BME280;4073;42.626;25.386;2023-03-15T00:07:57;96375.91;;;4.53;63.40
8061;BME280;4073;42.626;25.386;2023-03-15T00:10:22;96381.19;;;4.53;63.42
8061;BME280;4073;42.626;25.386;2023-03-15T00:12:48;96375.41;;;4.56;63.38
8061;BME280;4073;42.626;25.386;2023-03-15T00:15:13;96376.72;;;4.58;63.61
8061;BME280;4073;42.626;25.386;2023-03-15T00:17:40;96371.69;;;4.57;63.38
8061;BME280;4073;42.626;25.386;2023-03-15T00:20:05;96365.06;;;4.54;63.48
8061;BME280;4073;42.626;25.386;2023-03-15T00:22:32;96344.88;;;4.43;64.11
8061;BME280;4073;42.626;25.386;2023-03-15T00:24:57;96364.00;;;4.55;64.57
8061;BME280;4073;42.626;25.386;2023-03-15T00:27:22;96350.75;;;4.55;64.88
8061;BME280;4073;42.626;25.386;2023-03-15T00:29:48;96348.94;;;4.56;65.39
8061;BME280;4073;42.626;25.386;2023-03-15T00:32:13;96334.06;;;4.50;65.41
8061;BME280;4073;42.626;25.386;2023-03-15T00:34:39;96324.69;;;4.37;66.01
8061;BME280;4073;42.626;25.386;2023-03-15T00:37:04;96313.03;;;4.33;66.74
8061;BME280;4073;42.626;25.386;2023-03-15T00:39:30;96322.84;;;4.38;67.01
8061;BME280;4073;42.626;25.386;2023-03-15T00:41:55;96304.53;;;4.31;67.24
8061;BME280;4073;42.626;25.386;2023-03-15T00:44:22;96317.53;;;4.38;67.57
8061;BME280;4073;42.626;25.386;2023-03-15T00:46:48;96304.56;;;4.36;67.65
8061;BME280;4073;42.626;25.386;2023-03-15T00:49:14;96306.38;;;4.31;68.46
8061;BME280;4073;42.626;25.386;2023-03-15T00:51:39;96305.03;;;4.28;68.44
8061;BME280;4073;42.626;25.386;2023-03-15T00:54:05;96299.47;;;4.25;68.39
8061;BME280;4073;42.626;25.386;2023-03-15T00:56:30;96303.66;;;4.21;68.87
8061;BME280;4073;42.626;25.386;2023-03-15T00:58:56;96298.25;;;4.11;69.35
8061;BME280;4073;42.626;25.386;2023-03-15T01:01:25;96292.88;;;4.01;70.05
8061;BME280;4073;42.626;25.386;2023-03-15T01:03:51;96288.63;;;3.95;70.61
8061;BME280;4073;42.626;25.386;2023-03-15T01:06:20;96279.84;;;3.89;70.95
8061;BME280;4073;42.626;25.386;2023-03-15T01:08:46;96275.31;;;3.85;71.25
8061;BME280;4073;42.626;25.386;2023-03-15T01:11:18;96280.53;;;3.80;71.61
8061;BME280;4073;42.626;25.386;2023-03-15T01:13:44;96274.63;;;3.68;72.67
8061;BME280;4073;42.626;25.386;2023-03-15T01:16:11;96260.31;;;3.64;73.04
8061;BME280;4073;42.626;25.386;2023-03-15T01:18:37;96251.97;;;3.50;73.25
8061;BME280;4073;42.626;25.386;2023-03-15T01:21:07;96257.81;;;3.52;73.50
8061;BME280;4073;42.626;25.386;2023-03-15T01:23:33;96254.72;;;3.60;73.19
8061;BME280;4073;42.626;25.386;2023-03-15T01:26:04;96255.03;;;3.64;72.50
8061;BME280;4073;42.626;25.386;2023-03-15T01:28:30;96249.78;;;3.69;71.22
8061;BME280;4073;42.626;25.386;2023-03-15T01:30:55;96252.41;;;3.69;70.56
8061;BME280;4073;42.626;25.386;2023-03-15T01:33:21;96233.59;;;3.65;70.44
8061;BME280;4073;42.626;25.386;2023-03-15T01:35:47;96241.13;;;3.78;70.16
8061;BME280;4073;42.626;25.386;2023-03-15T01:38:13;96251.53;;;3.85;70.06
8061;BME280;4073;42.626;25.386;2023-03-15T01:40:43;96244.38;;;3.85;69.86
8061;BME280;4073;42.626;25.386;2023-03-15T01:43:18;96230.88;;;3.82;70.25
8061;BME280;4073;42.626;25.386;2023-03-15T01:46:20;96222.88;;;3.77;69.84
8061;BME280;4073;42.626;25.386;2023-03-15T01:48:56;96222.50;;;3.63;70.84
8061;BME280;4073;42.626;25.386;2023-03-15T01:56:52;96209.00;;;3.33;71.13
8061;BME280;4073;42.626;25.386;2023-03-15T01:59:25;96225.75;;;3.44;70.82
8061;BME280;4073;42.626;25.386;2023-03-15T02:01:53;96218.25;;;3.36;70.91
8061;BME280;4073;42.626;25.386;2023-03-15T02:04:24;96232.84;;;3.38;70.50
8061;BME280;4073;42.626;25.386;2023-03-15T02:06:55;96232.22;;;3.31;70.63
8061;BME280;4073;42.626;25.386;2023-03-15T02:09:26;96230.84;;;3.24;71.08
8061;BME280;4073;42.626;25.386;2023-03-15T02:11:54;96227.44;;;3.28;70.72
8061;BME280;4073;42.626;25.386;2023-03-15T02:14:21;96229.88;;;3.35;70.76
8061;BME280;4073;42.626;25.386;2023-03-15T02:16:47;96234.13;;;3.36;70.63
8061;BME280;4073;42.626;25.386;2023-03-15T02:25:00;96232.06;;;3.43;69.31
8061;BME280;4073;42.626;25.386;2023-03-15T02:27:31;96225.19;;;3.42;68.92
8061;BME280;4073;42.626;25.386;2023-03-15T02:29:59;96231.78;;;3.39;69.52
8061;BME280;4073;42.626;25.386;2023-03-15T02:32:28;96234.22;;;3.46;69.47
8061;BME280;4073;42.626;25.386;2023-03-15T02:34:54;96236.38;;;3.49;69.53
8061;BME280;4073;42.626;25.386;2023-03-15T02:37:20;96219.53;;;3.55;69.15
8061;BME280;4073;42.626;25.386;2023-03-15T02:39:46;96220.59;;;3.59;68.79
8061;BME280;4073;42.626;25.386;2023-03-15T02:42:12;96207.88;;;3.51;68.57
8061;BME280;4073;42.626;25.386;2023-03-15T02:44:39;96222.19;;;3.60;68.97
8061;BME280;4073;42.626;25.386;2023-03-15T02:47:21;96218.53;;;3.61;68.78
8061;BME280;4073;42.626;25.386;2023-03-15T02:49:50;96215.38;;;3.64;69.34
8061;BME280;4073;42.626;25.386;2023-03-15T02:52:16;96207.41;;;3.59;68.92
8061;BME280;4073;42.626;25.386;2023-03-15T02:54:41;96198.47;;;3.12;70.07
8061;BME280;4073;42.626;25.386;2023-03-15T02:57:12;96203.38;;;3.25;69.97
8061;BME280;4073;42.626;25.386;2023-03-15T02:59:37;96197.94;;;3.36;69.52
8061;BME280;4073;42.626;25.386;2023-03-15T03:02:04;96206.72;;;3.42;69.59
8061;BME280;4073;42.626;25.386;2023-03-15T03:04:29;96197.22;;;3.46;69.43
8061;BME280;4073;42.626;25.386;2023-03-15T03:06:55;96200.88;;;3.40;69.61
8061;BME280;4073;42.626;25.386;2023-03-15T03:09:21;96192.59;;;3.31;69.71
8061;BME280;4073;42.626;25.386;2023-03-15T03:11:47;96192.41;;;3.38;69.62
8061;BME280;4073;42.626;25.386;2023-03-15T03:14:12;96193.28;;;3.48;69.43
8061;BME280;4073;42.626;25.386;2023-03-15T03:16:39;96182.94;;;3.42;69.56
8061;BME280;4073;42.626;25.386;2023-03-15T03:19:04;96193.38;;;3.58;69.18
8061;BME280;4073;42.626;25.386;2023-03-15T03:21:30;96188.97;;;3.64;69.22
8061;BME280;4073;42.626;25.386;2023-03-15T03:23:55;96197.75;;;3.74;69.29
8061;BME280;4073;42.626;25.386;2023-03-15T03:26:21;96192.53;;;3.79;69.43
8061;BME280;4073;42.626;25.386;2023-03-15T03:28:52;96190.41;;;3.81;69.66
8061;BME280;4073;42.626;25.386;2023-03-15T03:31:23;96177.94;;;3.77;70.01
8061;BME280;4073;42.626;25.386;2023-03-15T03:33:50;96181.47;;;3.87;69.88
8061;BME280;4073;42.626;25.386;2023-03-15T03:36:16;96175.38;;;3.87;70.34
8061;BME280;4073;42.626;25.386;2023-03-15T03:38:44;96175.13;;;3.88;70.93
8061;BME280;4073;42.626;25.386;2023-03-15T03:41:10;96175.69;;;3.90;70.38
8061;BME280;4073;42.626;25.386;2023-03-15T03:43:36;96160.88;;;3.89;69.98
8061;BME280;4073;42.626;25.386;2023-03-15T03:46:02;96172.59;;;4.03;69.76
8061;BME280;4073;42.626;25.386;2023-03-15T03:48:28;96164.09;;;3.96;69.97
8061;BME280;4073;42.626;25.386;2023-03-15T03:50:54;96183.47;;;4.07;70.58
8061;BME280;4073;42.626;25.386;2023-03-15T03:53:19;96183.50;;;4.12;70.62
8061;BME280;4073;42.626;25.386;2023-03-15T03:55:45;96183.78;;;4.15;71.14
8061;BME280;4073;42.626;25.386;2023-03-15T03:58:11;96178.22;;;4.17;71.49
8061;BME280;4073;42.626;25.386;2023-03-15T04:00:36;96177.16;;;4.13;71.70
8061;BME280;4073;42.626;25.386;2023-03-15T04:03:02;96182.44;;;4.13;71.47
8061;BME280;4073;42.626;25.386;2023-03-15T04:05:28;96191.94;;;4.09;72.28
8061;BME280;4073;42.626;25.386;2023-03-15T04:07:53;96185.00;;;3.98;72.68
8061;BME280;4073;42.626;25.386;2023-03-15T04:10:19;96183.09;;;3.93;72.57
8061;BME280;4073;42.626;25.386;2023-03-15T04:12:52;96189.19;;;3.94;72.16
8061;BME280;4073;42.626;25.386;2023-03-15T04:15:17;96179.84;;;3.81;72.62
8061;BME280;4073;42.626;25.386;2023-03-15T04:17:43;96180.13;;;3.85;72.70
8061;BME280;4073;42.626;25.386;2023-03-15T04:20:09;96173.69;;;3.71;73.56
8061;BME280;4073;42.626;25.386;2023-03-15T04:22:37;96178.97;;;3.71;73.93
8061;BME280;4073;42.626;25.386;2023-03-15T04:25:03;96180.00;;;3.70;73.95
8061;BME280;4073;42.626;25.386;2023-03-15T04:27:28;96181.88;;;3.74;73.38
8061;BME280;4073;42.626;25.386;2023-03-15T04:29:54;96172.56;;;3.67;73.97
8061;BME280;4073;42.626;25.386;2023-03-15T04:32:19;96177.91;;;3.72;73.69
8061;BME280;4073;42.626;25.386;2023-03-15T04:34:45;96186.69;;;3.77;74.16
8061;BME280;4073;42.626;25.386;2023-03-15T04:37:18;96190.66;;;3.80;74.23
8061;BME280;4073;42.626;25.386;2023-03-15T04:39:43;96191.22;;;3.82;74.80
8061;BME280;4073;42.626;25.386;2023-03-15T04:42:09;96190.66;;;3.80;75.15
8061;BME280;4073;42.626;25.386;2023-03-15T04:44:35;96189.91;;;3.84;75.37
8061;BME280;4073;42.626;25.386;2023-03-15T04:47:00;96197.63;;;3.91;75.35
8061;BME280;4073;42.626;25.386;2023-03-15T04:49:26;96195.81;;;3.96;75.54
8061;BME280;4073;42.626;25.386;2023-03-15T04:51:51;96189.19;;;3.94;75.99
8061;BME280;4073;42.626;25.386;2023-03-15T04:54:17;96187.66;;;3.98;76.19
8061;BME280;4073;42.626;25.386;2023-03-15T04:56:42;96182.38;;;4.03;76.21
8061;BME280;4073;42.626;25.386;2023-03-15T04:59:08;96181.28;;;3.99;76.73
8061;BME280;4073;42.626;25.386;2023-03-15T05:01:35;96176.50;;;3.96;77.06
8061;BME280;4073;42.626;25.386;2023-03-15T05:04:01;96174.88;;;3.90;76.39
8061;BME280;4073;42.626;25.386;2023-03-15T05:06:27;96172.38;;;3.73;76.75
8061;BME280;4073;42.626;25.386;2023-03-15T05:08:52;96166.19;;;3.63;76.91
8061;BME280;4073;42.626;25.386;2023-03-15T05:11:18;96161.41;;;3.60;77.41
8061;BME280;4073;42.626;25.386;2023-03-15T05:13:44;96173.13;;;3.69;77.64
8061;BME280;4073;42.626;25.386;2023-03-15T05:16:09;96166.09;;;3.79;77.70
8061;BME280;4073;42.626;25.386;2023-03-15T05:18:35;96170.09;;;3.87;77.73
8061;BME280;4073;42.626;25.386;2023-03-15T05:21:00;96164.28;;;3.90;77.59
8061;BME280;4073;42.626;25.386;2023-03-15T05:23:26;96178.66;;;4.04;77.55
8061;BME280;4073;42.626;25.386;2023-03-15T05:25:52;96179.25;;;4.11;77.43
8061;BME280;4073;42.626;25.386;2023-03-15T05:28:23;96166.06;;;4.16;77.44
8061;BME280;4073;42.626;25.386;2023-03-15T05:30:49;96155.19;;;4.12;77.38
8061;BME280;4073;42.626;25.386;2023-03-15T05:33:16;96151.31;;;4.25;77.11
8061;BME280;4073;42.626;25.386;2023-03-15T05:35:42;96161.97;;;4.40;76.71
8061;BME280;4073;42.626;25.386;2023-03-15T05:38:11;96152.41;;;4.29;76.88
8061;BME280;4073;42.626;25.386;2023-03-15T05:40:42;96143.69;;;4.33;76.94
8061;BME280;4073;42.626;25.386;2023-03-15T05:43:08;96157.75;;;4.44;76.68
8061;BME280;4073;42.626;25.386;2023-03-15T05:45:33;96140.31;;;4.48;75.52
8061;BME280;4073;42.626;25.386;2023-03-15T05:47:59;96133.72;;;4.55;75.14
8061;BME280;4073;42.626;25.386;2023-03-15T05:50:24;96141.13;;;4.53;74.68
8061;BME280;4073;42.626;25.386;2023-03-15T05:52:52;96132.72;;;4.66;73.71
8061;BME280;4073;42.626;25.386;2023-03-15T05:55:17;96140.41;;;4.68;73.09
8061;BME280;4073;42.626;25.386;2023-03-15T05:57:43;96145.75;;;4.83;72.78
8061;BME280;4073;42.626;25.386;2023-03-15T06:00:09;96146.06;;;4.96;72.26
8061;BME280;4073;42.626;25.386;2023-03-15T06:02:34;96149.78;;;5.10;71.73
8061;BME280;4073;42.626;25.386;2023-03-15T06:05:00;96157.28;;;5.28;71.29
8061;BME280;4073;42.626;25.386;2023-03-15T06:10:10;96158.88;;;5.65;69.20
8061;BME280;4073;42.626;25.386;2023-03-15T06:12:36;96159.69;;;5.75;68.60
8061;BME280;4073;42.626;25.386;2023-03-15T06:15:02;96162.88;;;5.72;68.51
8061;BME280;4073;42.626;25.386;2023-03-15T06:17:27;96166.31;;;5.78;68.23
8061;BME280;4073;42.626;25.386;2023-03-15T06:19:53;96168.97;;;5.93;68.03
8061;BME280;4073;42.626;25.386;2023-03-15T06:22:18;96180.94;;;6.05;67.79
8061;BME280;4073;42.626;25.386;2023-03-15T06:24:45;96180.09;;;6.30;67.19
8061;BME280;4073;42.626;25.386;2023-03-15T06:27:10;96180.84;;;6.50;66.36
8061;BME280;4073;42.626;25.386;2023-03-15T06:29:36;96170.91;;;6.81;65.38
8061;BME280;4073;42.626;25.386;2023-03-15T06:32:02;96170.31;;;7.04;65.66
8061;BME280;4073;42.626;25.386;2023-03-15T06:34:28;96162.22;;;7.24;64.39
8061;BME280;4073;42.626;25.386;2023-03-15T06:36:53;96157.16;;;7.27;64.45
8061;BME280;4073;42.626;25.386;2023-03-15T06:39:18;96168.31;;;7.29;64.48
8061;BME280;4073;42.626;25.386;2023-03-15T06:41:44;96165.44;;;7.21;64.90
8061;BME280;4073;42.626;25.386;2023-03-15T06:44:09;96159.94;;;7.51;64.44
8061;BME280;4073;42.626;25.386;2023-03-15T06:46:35;96174.13;;;7.75;63.83
8061;BME280;4073;42.626;25.386;2023-03-15T06:49:01;96160.31;;;8.07;62.88
8061;BME280;4073;42.626;25.386;2023-03-15T06:51:28;96159.41;;;8.50;61.46
8061;BME280;4073;42.626;25.386;2023-03-15T06:53:53;96149.06;;;8.90;59.89
8061;BME280;4073;42.626;25.386;2023-03-15T06:56:18;96149.47;;;9.39;58.25
8061;BME280;4073;42.626;25.386;2023-03-15T06:58:44;96143.41;;;9.71;57.26
8061;BME280;4073;42.626;25.386;2023-03-15T07:01:13;96150.91;;;9.87;56.78
8061;BME280;4073;42.626;25.386;2023-03-15T07:03:40;96153.84;;;9.86;56.69
8061;BME280;4073;42.626;25.386;2023-03-15T07:06:05;96132.31;;;9.45;58.13
8061;BME280;4073;42.626;25.386;2023-03-15T07:08:31;96149.16;;;9.04;61.54
8061;BME280;4073;42.626;25.386;2023-03-15T07:10:56;96147.16;;;8.72;61.55
8061;BME280;4073;42.626;25.386;2023-03-15T07:13:22;96148.28;;;8.43;61.99
8061;BME280;4073;42.626;25.386;2023-03-15T07:15:52;96151.28;;;8.02;63.54
8061;BME280;4073;42.626;25.386;2023-03-15T07:18:18;96158.53;;;7.97;64.18
8061;BME280;4073;42.626;25.386;2023-03-15T07:20:43;96137.78;;;7.94;63.81
8061;BME280;4073;42.626;25.386;2023-03-15T07:23:09;96145.91;;;8.07;63.39
8061;BME280;4073;42.626;25.386;2023-03-15T07:25:34;96139.53;;;8.09;63.38
8061;BME280;4073;42.626;25.386;2023-03-15T07:28:00;96144.56;;;8.39;62.57
8061;BME280;4073;42.626;25.386;2023-03-15T07:30:25;96126.09;;;9.13;60.40
8061;BME280;4073;42.626;25.386;2023-03-15T07:32:52;96126.31;;;9.72;57.81
8061;BME280;4073;42.626;25.386;2023-03-15T07:35:17;96127.56;;;10.25;56.58
8061;BME280;4073;42.626;25.386;2023-03-15T07:37:42;96129.41;;;10.57;55.17
8061;BME280;4073;42.626;25.386;2023-03-15T07:40:09;96117.91;;;10.97;54.18
8061;BME280;4073;42.626;25.386;2023-03-15T07:42:35;96126.28;;;11.31;53.00
8061;BME280;4073;42.626;25.386;2023-03-15T07:45:02;96114.00;;;11.65;51.68
8061;BME280;4073;42.626;25.386;2023-03-15T07:47:28;96108.34;;;11.67;51.10
8061;BME280;4073;42.626;25.386;2023-03-15T07:49:53;96101.25;;;11.84;50.72
8061;BME280;4073;42.626;25.386;2023-03-15T07:52:19;96112.09;;;11.79;50.80
8061;BME280;4073;42.626;25.386;2023-03-15T07:54:45;96109.88;;;11.46;52.38
8061;BME280;4073;42.626;25.386;2023-03-15T07:57:11;96105.69;;;11.53;52.52
8061;BME280;4073;42.626;25.386;2023-03-15T07:59:36;96108.09;;;11.77;52.24
8061;BME280;4073;42.626;25.386;2023-03-15T08:02:02;96105.66;;;12.11;51.25
8061;BME280;4073;42.626;25.386;2023-03-15T08:04:27;96102.75;;;12.60;49.85
8061;BME280;4073;42.626;25.386;2023-03-15T08:06:53;96103.09;;;13.15;48.27
8061;BME280;4073;42.626;25.386;2023-03-15T08:09:18;96108.38;;;13.79;46.54
8061;BME280;4073;42.626;25.386;2023-03-15T08:11:43;96111.28;;;14.46;44.56
8061;BME280;4073;42.626;25.386;2023-03-15T08:14:09;96103.34;;;14.58;43.75
8061;BME280;4073;42.626;25.386;2023-03-15T08:16:34;96102.09;;;15.13;43.14
8061;BME280;4073;42.626;25.386;2023-03-15T08:19:01;96099.34;;;15.22;42.53
8061;BME280;4073;42.626;25.386;2023-03-15T08:21:26;96088.03;;;15.08;42.62
8061;BME280;4073;42.626;25.386;2023-03-15T08:23:52;96086.94;;;15.09;43.32
8061;BME280;4073;42.626;25.386;2023-03-15T08:26:17;96085.78;;;14.89;43.71
8061;BME280;4073;42.626;25.386;2023-03-15T08:28:43;96091.63;;;14.54;44.10
8061;BME280;4073;42.626;25.386;2023-03-15T08:31:08;96083.41;;;14.59;44.22
8061;BME280;4073;42.626;25.386;2023-03-15T08:33:34;96080.81;;;15.00;43.23
8061;BME280;4073;42.626;25.386;2023-03-15T08:35:59;96070.53;;;15.22;42.27
8061;BME280;4073;42.626;25.386;2023-03-15T08:38:26;96078.03;;;15.17;42.51
8061;BME280;4073;42.626;25.386;2023-03-15T08:40:55;96061.97;;;14.71;43.51
8061;BME280;4073;42.626;25.386;2023-03-15T08:43:20;96076.25;;;14.63;43.18
8061;BME280;4073;42.626;25.386;2023-03-15T08:45:47;96069.88;;;14.21;44.06
8061;BME280;4073;42.626;25.386;2023-03-15T08:48:13;96049.41;;;13.83;45.49
8061;BME280;4073;42.626;25.386;2023-03-15T08:50:39;96060.03;;;13.71;46.66
8061;BME280;4073;42.626;25.386;2023-03-15T08:53:04;96050.53;;;13.73;46.22
8061;BME280;4073;42.626;25.386;2023-03-15T08:55:30;96052.56;;;13.93;46.40
8061;BME280;4073;42.626;25.386;2023-03-15T08:57:55;96052.69;;;14.22;44.24
8061;BME280;4073;42.626;25.386;2023-03-15T09:00:21;96048.63;;;14.45;44.45
8061;BME280;4073;42.626;25.386;2023-03-15T09:02:50;96038.50;;;14.80;44.16
8061;BME280;4073;42.626;25.386;2023-03-15T09:05:20;96028.16;;;15.40;42.80
8061;BME280;4073;42.626;25.386;2023-03-15T09:07:46;96019.75;;;16.51;40.71
8061;BME280;4073;42.626;25.386;2023-03-15T09:10:14;96003.44;;;17.47;38.16
8061;BME280;4073;42.626;25.386;2023-03-15T09:12:45;96000.84;;;17.78;35.68
8061;BME280;4073;42.626;25.386;2023-03-15T09:15:11;96003.34;;;17.32;35.94
8061;BME280;4073;42.626;25.386;2023-03-15T09:17:38;96006.81;;;16.69;36.82
8061;BME280;4073;42.626;25.386;2023-03-15T09:20:04;96013.13;;;16.61;36.28
8061;BME280;4073;42.626;25.386;2023-03-15T09:22:42;96004.66;;;16.98;36.23
8061;BME280;4073;42.626;25.386;2023-03-15T09:25:08;96007.47;;;16.90;36.59
8061;BME280;4073;42.626;25.386;2023-03-15T09:27:35;96004.34;;;16.88;35.98
8061;BME280;4073;42.626;25.386;2023-03-15T09:30:02;96002.22;;;17.33;34.94
8061;BME280;4073;42.626;25.386;2023-03-15T09:32:27;95999.19;;;17.46;34.65
8061;BME280;4073;42.626;25.386;2023-03-15T09:34:53;95995.78;;;17.77;34.04
8061;BME280;4073;42.626;25.386;2023-03-15T09:37:18;95996.63;;;17.65;34.15
8061;BME280;4073;42.626;25.386;2023-03-15T09:39:46;95995.56;;;16.91;35.77
8061;BME280;4073;42.626;25.386;2023-03-15T09:42:36;95980.88;;;17.28;34.83
8061;BME280;4073;42.626;25.386;2023-03-15T09:45:17;95973.81;;;17.51;34.38
8061;BME280;4073;42.626;25.386;2023-03-15T09:53:34;95987.56;;;16.94;35.24
8061;BME280;4073;42.626;25.386;2023-03-15T09:56:03;95984.88;;;16.94;35.23
8061;BME280;4073;42.626;25.386;2023-03-15T09:58:34;95962.59;;;16.97;35.38
8061;BME280;4073;42.626;25.386;2023-03-15T10:01:05;95976.38;;;17.59;34.73
8061;BME280;4073;42.626;25.386;2023-03-15T10:03:42;95986.47;;;17.35;34.79
8061;BME280;4073;42.626;25.386;2023-03-15T10:08:39;95983.59;;;17.55;34.79
8061;BME280;4073;42.626;25.386;2023-03-15T10:16:46;95970.59;;;16.82;35.41
8061;BME280;4073;42.626;25.386;2023-03-15T10:19:39;95966.34;;;16.33;36.14
8061;BME280;4073;42.626;25.386;2023-03-15T10:24:49;95965.56;;;16.44;35.72
8061;BME280;4073;42.626;25.386;2023-03-15T10:27:19;95967.44;;;16.32;36.16
8061;BME280;4073;42.626;25.386;2023-03-15T10:29:47;95970.69;;;16.01;37.13
8061;BME280;4073;42.626;25.386;2023-03-15T10:32:16;95961.50;;;15.70;38.33
8061;BME280;4073;42.626;25.386;2023-03-15T10:34:48;95959.56;;;16.39;36.98
8061;BME280;4073;42.626;25.386;2023-03-15T10:37:15;95946.25;;;17.06;35.33
8061;BME280;4073;42.626;25.386;2023-03-15T10:39:43;95941.25;;;17.59;35.14
8061;BME280;4073;42.626;25.386;2023-03-15T10:42:31;95909.13;;;18.17;33.97
8061;BME280;4073;42.626;25.386;2023-03-15T10:44:58;95930.16;;;18.54;32.97
8061;BME280;4073;42.626;25.386;2023-03-15T10:47:41;95935.19;;;18.71;32.32
8061;BME280;4073;42.626;25.386;2023-03-15T10:50:09;95923.56;;;18.71;32.34
8061;BME280;4073;42.626;25.386;2023-03-15T10:52:37;95924.97;;;18.99;31.93
8061;BME280;4073;42.626;25.386;2023-03-15T10:57:39;95921.56;;;19.78;30.46
8061;BME280;4073;42.626;25.386;2023-03-15T11:00:26;95919.78;;;19.67;30.35
8061;BME280;4073;42.626;25.386;2023-03-15T11:03:15;95910.69;;;19.56;30.72
8061;BME280;4073;42.626;25.386;2023-03-15T11:05:46;95912.81;;;19.66;30.16
8061;BME280;4073;42.626;25.386;2023-03-15T11:08:14;95908.88;;;19.06;31.49
8061;BME280;4073;42.626;25.386;2023-03-15T11:10:40;95907.31;;;19.05;31.65
8061;BME280;4073;42.626;25.386;2023-03-15T11:18:34;95907.94;;;16.88;35.01
8061;BME280;4073;42.626;25.386;2023-03-15T11:21:03;95899.22;;;16.79;35.69
8061;BME280;4073;42.626;25.386;2023-03-15T11:23:34;95892.44;;;16.85;35.63
8061;BME280;4073;42.626;25.386;2023-03-15T11:26:01;95892.94;;;17.03;35.46
8061;BME280;4073;42.626;25.386;2023-03-15T11:28:29;95879.56;;;16.67;35.92
8061;BME280;4073;42.626;25.386;2023-03-15T11:30:59;95883.97;;;16.47;35.92
8061;BME280;4073;42.626;25.386;2023-03-15T11:36:06;95892.56;;;15.69;38.70
8061;BME280;4073;42.626;25.386;2023-03-15T11:38:38;95892.53;;;15.44;39.29
8061;BME280;4073;42.626;25.386;2023-03-15T11:41:35;95890.63;;;15.24;40.14
8061;BME280;4073;42.626;25.386;2023-03-15T11:44:35;95894.66;;;15.18;40.75
8061;BME280;4073;42.626;25.386;2023-03-15T11:47:48;95886.91;;;14.96;41.19
8061;BME280;4073;42.626;25.386;2023-03-15T11:49:55;95886.22;;;14.87;41.14
8061;BME280;4073;42.626;25.386;2023-03-15T11:52:28;95885.69;;;14.73;41.56
8061;BME280;4073;42.626;25.386;2023-03-15T11:54:56;95859.69;;;14.57;41.84
8061;BME280;4073;42.626;25.386;2023-03-15T11:57:39;95870.72;;;14.64;41.87
8061;BME280;4073;42.626;25.386;2023-03-15T12:02:56;95864.53;;;14.43;42.15
8061;BME280;4073;42.626;25.386;2023-03-15T12:05:46;95843.63;;;14.28;42.61
8061;BME280;4073;42.626;25.386;2023-03-15T12:11:13;95857.66;;;14.33;42.97
8061;BME280;4073;42.626;25.386;2023-03-15T12:16:31;95855.31;;;14.52;43.05
8061;BME280;4073;42.626;25.386;2023-03-15T12:19:09;95860.28;;;14.62;42.86
8061;BME280;4073;42.626;25.386;2023-03-15T12:21:40;95843.81;;;14.64;42.08
8061;BME280;4073;42.626;25.386;2023-03-15T12:24:33;95847.13;;;14.49;42.67
8061;BME280;4073;42.626;25.386;2023-03-15T12:27:02;95847.56;;;14.71;42.41
8061;BME280;4073;42.626;25.386;2023-03-15T12:29:30;95843.16;;;14.87;41.85
8061;BME280;4073;42.626;25.386;2023-03-15T12:40:33;95842.28;;;14.95;41.75
8061;BME280;4073;42.626;25.386;2023-03-15T12:53:44;95837.81;;;14.99;41.70
8061;BME280;4073;42.626;25.386;2023-03-15T12:58:53;95844.31;;;14.98;41.40
8061;BME280;4073;42.626;25.386;2023-03-15T13:01:19;95839.03;;;14.90;41.82
8061;BME280;4073;42.626;25.386;2023-03-15T13:03:53;95837.72;;;15.08;41.23
8061;BME280;4073;42.626;25.386;2023-03-15T13:11:40;95840.09;;;15.09;41.06
8061;BME280;4073;42.626;25.386;2023-03-15T13:19:44;95839.91;;;15.14;40.82
8061;BME280;4073;42.626;25.386;2023-03-15T13:22:36;95833.97;;;14.88;41.54
8061;BME280;4073;42.626;25.386;2023-03-15T13:25:29;95834.09;;;14.92;41.24
8061;BME280;4073;42.626;25.386;2023-03-15T13:28:29;95829.56;;;14.84;41.91
8061;BME280;4073;42.626;25.386;2023-03-15T13:31:09;95823.03;;;15.05;41.33
8061;BME280;4073;42.626;25.386;2023-03-15T13:33:35;95826.44;;;15.14;40.88
8061;BME280;4073;42.626;25.386;2023-03-15T13:36:13;95828.94;;;15.31;40.63
8061;BME280;4073;42.626;25.386;2023-03-15T13:41:26;95826.34;;;15.23;40.78
8061;BME280;4073;42.626;25.386;2023-03-15T13:43:56;95837.72;;;15.08;41.31
8061;BME280;4073;42.626;25.386;2023-03-15T13:46:24;95833.88;;;14.97;41.23
8061;BME280;4073;42.626;25.386;2023-03-15T13:48:52;95843.53;;;14.98;41.33
8061;BME280;4073;42.626;25.386;2023-03-15T13:51:27;95837.47;;;14.89;40.89
8061;BME280;4073;42.626;25.386;2023-03-15T13:54:00;95835.00;;;14.63;41.66
8061;BME280;4073;42.626;25.386;2023-03-15T13:56:31;95833.59;;;14.57;42.10
8061;BME280;4073;42.626;25.386;2023-03-15T13:58:58;95833.28;;;14.59;41.94
8061;BME280;4073;42.626;25.386;2023-03-15T14:01:27;95835.97;;;14.59;42.12
8061;BME280;4073;42.626;25.386;2023-03-15T14:04:11;95831.56;;;14.54;41.80
8061;BME280;4073;42.626;25.386;2023-03-15T14:06:38;95835.16;;;14.58;41.71
8061;BME280;4073;42.626;25.386;2023-03-15T14:09:10;95838.06;;;14.53;41.82
8061;BME280;4073;42.626;25.386;2023-03-15T14:11:41;95824.81;;;14.48;41.51
8061;BME280;4073;42.626;25.386;2023-03-15T14:14:26;95832.88;;;14.48;41.87
8061;BME280;4073;42.626;25.386;2023-03-15T14:16:52;95834.66;;;14.44;41.98
8061;BME280;4073;42.626;25.386;2023-03-15T14:19:20;95837.66;;;14.43;41.74
8061;BME280;4073;42.626;25.386;2023-03-15T14:21:53;95820.81;;;14.34;41.61
8061;BME280;4073;42.626;25.386;2023-03-15T14:26:56;95833.72;;;14.40;41.82
8061;BME280;4073;42.626;25.386;2023-03-15T14:29:30;95834.06;;;14.39;41.64
8061;BME280;4073;42.626;25.386;2023-03-15T14:32:02;95835.63;;;14.40;41.71
8061;BME280;4073;42.626;25.386;2023-03-15T14:34:34;95834.31;;;14.46;41.82
8061;BME280;4073;42.626;25.386;2023-03-15T14:37:05;95830.19;;;14.48;41.69
8061;BME280;4073;42.626;25.386;2023-03-15T14:41:59;95831.97;;;14.24;42.07
8061;BME280;4073;42.626;25.386;2023-03-15T14:44:25;95835.75;;;14.23;41.50
8061;BME280;4073;42.626;25.386;2023-03-15T14:46:51;95827.44;;;14.07;41.93
8061;BME280;4073;42.626;25.386;2023-03-15T14:49:28;95830.31;;;14.02;42.35
8061;BME280;4073;42.626;25.386;2023-03-15T14:51:59;95832.38;;;14.05;42.38
8061;BME280;4073;42.626;25.386;2023-03-15T14:54:27;95831.09;;;14.03;42.74